createdAt,value
2023-05-23T00:00:59.703Z,99531.28
2023-05-23T00:03:27.421Z,99534.56
2023-05-23T00:05:55.972Z,99527.44
2023-05-23T00:08:22.981Z,99525.81
2023-05-23T00:10:49.941Z,99519.78
2023-05-23T00:13:17.133Z,99522.53
2023-05-23T00:15:44.568Z,99515.41
2023-05-23T00:18:12.153Z,99526.91
2023-05-23T00:20:42.114Z,99517.06
2023-05-23T00:23:14.003Z,99528.31
2023-05-23T00:25:41.260Z,99523.38
2023-05-23T00:28:08.600Z,99521.47
2023-05-23T00:30:35.533Z,99532.41
2023-05-23T00:33:02.852Z,99521.16
2023-05-23T00:35:30.198Z,99520.06
2023-05-23T00:37:57.336Z,99526.34
2023-05-23T00:40:26.836Z,99529.66
2023-05-23T00:42:54.285Z,99533.75
2023-05-23T00:45:21.593Z,99529.38
2023-05-23T00:47:49.730Z,99534.59
2023-05-23T00:50:16.865Z,99543.88
2023-05-23T00:52:48.037Z,99542.78
2023-05-23T00:55:15.829Z,99545.50
2023-05-23T00:57:44.314Z,99550.44
2023-05-23T01:00:14.124Z,99544.72
2023-05-23T01:02:45.589Z,99540.56
2023-05-23T01:05:15.032Z,99540.56
2023-05-23T01:07:41.954Z,99543.31
2023-05-23T01:10:11.374Z,99546.88
2023-05-23T01:12:53.915Z,99546.59
2023-05-23T01:15:32.862Z,99549.28
2023-05-23T01:18:08.546Z,99547.66
2023-05-23T01:20:43.365Z,99549.56
2023-05-23T01:23:39.473Z,99549.56
2023-05-23T01:26:39.310Z,99556.97
2023-05-23T01:29:19.047Z,99551.78
2023-05-23T01:31:52.434Z,99546.56
2023-05-23T01:34:21.116Z,99548.19
2023-05-23T01:36:53.889Z,99544.09
2023-05-23T01:39:21.009Z,99547.94
2023-05-23T01:41:49.631Z,99551.22
2023-05-23T01:44:19.773Z,99551.22
2023-05-23T01:46:49.022Z,99550.69
2023-05-23T01:49:19.099Z,99556.72
2023-05-23T01:51:47.639Z,99558.38
2023-05-23T01:54:17.704Z,99557.53
2023-05-23T01:56:45.621Z,99555.91
2023-05-23T01:59:12.855Z,99558.06
2023-05-23T02:01:42.016Z,99558.59
2023-05-23T02:04:18.724Z,99559.97
2023-05-23T02:06:49.662Z,99552.84
2023-05-23T02:09:18.698Z,99549.84
2023-05-23T02:11:46.154Z,99551.22
2023-05-23T02:14:13.129Z,99547.09
2023-05-23T02:16:41.535Z,99557.78
2023-05-23T02:19:09.341Z,99555.56
2023-05-23T02:21:37.762Z,99553.91
2023-05-23T02:24:05.033Z,99558.28
2023-05-23T02:26:32.075Z,99550.38
2023-05-23T02:28:59.176Z,99563.53
2023-05-23T02:31:26.789Z,99561.88
2023-05-23T02:33:55.061Z,99561.34
2023-05-23T02:36:22.361Z,99572.84
2023-05-23T02:38:49.623Z,99576.97
2023-05-23T02:41:17.503Z,99580.53
2023-05-23T02:43:46.894Z,99582.44
2023-05-23T02:46:14.185Z,99585.78
2023-05-23T02:48:41.155Z,99587.97
2023-05-23T02:51:09.570Z,99590.44
2023-05-23T02:53:36.551Z,99592.88
2023-05-23T02:56:03.683Z,99587.97
2023-05-23T02:58:32.711Z,99591.25
2023-05-23T03:00:59.642Z,99587.97
2023-05-23T03:03:26.664Z,99592.88
2023-05-23T03:05:54.021Z,99588.22
2023-05-23T03:09:10.863Z,99584.41
2023-05-23T03:11:43.065Z,99583.84
2023-05-23T03:14:12.045Z,99592.59
2023-05-23T03:16:40.142Z,99589.03
2023-05-23T03:19:07.968Z,99589.84
2023-05-23T03:21:34.975Z,99592.59
2023-05-23T03:24:03.785Z,99592.06
2023-05-23T03:26:30.746Z,99588.78
2023-05-23T03:28:58.129Z,99595.88
2023-05-23T03:31:25.026Z,99586.84
2023-05-23T03:33:52.095Z,99595.63
2023-05-23T03:36:19.433Z,99600.28
2023-05-23T03:38:46.473Z,99606.81
2023-05-23T03:41:14.612Z,99613.97
2023-05-23T03:43:41.722Z,99606.56
2023-05-23T03:46:08.762Z,99615.28
2023-05-23T03:48:35.662Z,99618.63
2023-05-23T03:51:03.434Z,99620.00
2023-05-23T03:53:31.441Z,99628.19
2023-05-23T03:55:58.329Z,99618.59
2023-05-23T03:58:27.053Z,99626.00
2023-05-23T04:01:02.010Z,99626.53
2023-05-23T04:03:30.716Z,99629.81
2023-05-23T04:05:58.090Z,99630.88
2023-05-23T04:08:25.177Z,99632.00
2023-05-23T04:10:52.354Z,99625.94
2023-05-23T04:13:20.015Z,99628.69
2023-05-23T04:15:48.323Z,99628.69
2023-05-23T04:18:15.793Z,99637.16
2023-05-23T04:20:43.475Z,99628.97
2023-05-23T04:23:11.350Z,99634.69
2023-05-23T04:25:41.421Z,99629.78
2023-05-23T04:28:18.034Z,99629.81
2023-05-23T04:30:45.588Z,99630.38
2023-05-23T04:33:14.610Z,99630.09
2023-05-23T04:35:41.738Z,99624.09
2023-05-23T04:38:10.376Z,99627.41
2023-05-23T04:40:37.661Z,99627.63
2023-05-23T04:43:14.537Z,99634.25
2023-05-23T04:45:57.649Z,99636.44
2023-05-23T04:48:32.339Z,99641.38
2023-05-23T04:51:00.423Z,99638.66
2023-05-23T04:53:27.653Z,99640.28
2023-05-23T04:55:55.237Z,99646.34
2023-05-23T04:58:22.930Z,99646.38
2023-05-23T05:00:50.290Z,99652.94
2023-05-23T05:03:18.489Z,99652.97
2023-05-23T05:05:48.868Z,99657.34
2023-05-23T05:08:17.428Z,99650.22
2023-05-23T05:10:44.987Z,99646.97
2023-05-23T05:13:13.023Z,99659.03
2023-05-23T05:15:47.564Z,99655.75
2023-05-23T05:18:23.236Z,99648.06
2023-05-23T05:20:54.670Z,99652.16
2023-05-23T05:23:25.659Z,99659.28
2023-05-23T05:25:52.777Z,99662.03
2023-05-23T05:28:21.262Z,99659.28
2023-05-23T05:30:51.320Z,99659.56
2023-05-23T05:33:18.213Z,99662.03
2023-05-23T05:35:45.152Z,99657.03
2023-05-23T05:38:13.894Z,99660.94
2023-05-23T05:40:41.262Z,99657.00
2023-05-23T05:43:09.034Z,99651.41
2023-05-23T05:45:36.057Z,99652.31
2023-05-23T05:48:04.240Z,99660.38
2023-05-23T05:50:31.334Z,99667.25
2023-05-23T05:53:00.359Z,99664.50
2023-05-23T05:55:30.091Z,99674.00
2023-05-23T05:57:57.147Z,99680.00
2023-05-23T06:00:25.779Z,99674.06
2023-05-23T06:02:56.759Z,99678.56
2023-05-23T06:05:46.885Z,99682.13
2023-05-23T06:08:15.594Z,99685.72
2023-05-23T06:11:29.224Z,99685.19
2023-05-23T06:13:56.263Z,99691.56
2023-05-23T06:16:24.161Z,99691.28
2023-05-23T06:18:51.118Z,99690.78
2023-05-23T06:21:18.568Z,99699.31
2023-05-23T06:23:49.158Z,99701.53
2023-05-23T06:26:16.141Z,99712.19
2023-05-23T06:28:46.930Z,99709.47
2023-05-23T06:31:15.537Z,99710.56
2023-05-23T06:33:42.843Z,99714.94
2023-05-23T06:36:11.123Z,99716.03
2023-05-23T06:38:38.009Z,99713.59
2023-05-23T06:41:06.330Z,99722.09
2023-05-23T06:43:34.675Z,99725.13
2023-05-23T06:46:24.942Z,99729.22
2023-05-23T06:49:02.547Z,99731.91
2023-05-23T06:51:39.529Z,99731.88
2023-05-23T06:54:06.610Z,99740.34
2023-05-23T06:56:34.213Z,99741.22
2023-05-23T06:59:01.189Z,99743.97
2023-05-23T07:01:29.446Z,99744.53
2023-05-23T07:03:57.019Z,99748.41
2023-05-23T07:06:25.777Z,99755.56
2023-05-23T07:08:53.174Z,99756.91
2023-05-23T07:11:22.443Z,99759.69
2023-05-23T07:13:54.329Z,99764.00
2023-05-23T07:16:34.212Z,99765.34
2023-05-23T07:19:04.261Z,99759.59
2023-05-23T07:21:32.838Z,99772.22
2023-05-23T07:24:00.164Z,99766.69
2023-05-23T07:26:28.282Z,99757.38
2023-05-23T07:28:56.672Z,99762.06
2023-05-23T07:31:23.680Z,99760.34
2023-05-23T07:33:56.737Z,99767.75
2023-05-23T07:36:30.388Z,99759.78
2023-05-23T07:38:57.701Z,99766.28
2023-05-23T07:41:24.634Z,99774.00
2023-05-23T07:43:51.616Z,99777.22
2023-05-23T07:46:19.154Z,99769.88
2023-05-23T07:48:46.146Z,99774.81
2023-05-23T07:51:16.411Z,99771.63
2023-05-23T07:53:43.856Z,99772.22
2023-05-23T07:56:13.250Z,99775.47
2023-05-23T07:58:44.786Z,99780.38
2023-05-23T08:01:11.823Z,99783.41
2023-05-23T08:04:03.017Z,99793.00
2023-05-23T08:06:35.523Z,99790.69
2023-05-23T08:09:06.964Z,99789.59
2023-05-23T08:11:38.729Z,99794.81
2023-05-23T08:14:06.953Z,99787.00
2023-05-23T08:16:39.769Z,99794.19
2023-05-23T08:19:12.141Z,99789.19
2023-05-23T08:21:40.687Z,99789.03
2023-05-23T08:24:07.724Z,99794.34
2023-05-23T08:26:36.007Z,99804.72
2023-05-23T08:29:05.154Z,99801.78
2023-05-23T08:31:36.586Z,99800.75
2023-05-23T08:34:05.784Z,99803.19
2023-05-23T08:36:35.678Z,99814.41
2023-05-23T08:39:05.836Z,99819.63
2023-05-23T08:41:36.805Z,99815.44
2023-05-23T08:44:09.000Z,99821.47
2023-05-23T08:46:47.112Z,99814.06
2023-05-23T08:49:27.057Z,99814.63
2023-05-23T08:52:03.076Z,99816.25
2023-05-23T08:54:36.968Z,99820.63
2023-05-23T08:57:04.828Z,99817.25
2023-05-23T08:59:39.404Z,99820.13
2023-05-23T09:02:11.032Z,99826.44
2023-05-23T09:04:38.228Z,99829.44
2023-05-23T09:07:19.287Z,99830.50
2023-05-23T09:09:51.688Z,99824.94
2023-05-23T09:12:21.796Z,99836.56
2023-05-23T09:15:34.339Z,99835.53
2023-05-23T09:18:02.250Z,99835.56
2023-05-23T09:20:32.003Z,99830.50
2023-05-23T09:23:07.114Z,99844.75
2023-05-23T09:25:46.369Z,99847.47
2023-05-23T09:28:13.637Z,99845.66
2023-05-23T09:30:41.216Z,99846.50
2023-05-23T09:33:15.504Z,99849.84
2023-05-23T09:35:45.156Z,99847.94
2023-05-23T09:38:12.625Z,99848.28
2023-05-23T09:40:45.629Z,99848.16
2023-05-23T09:43:17.719Z,99852.47
2023-05-23T09:45:44.794Z,99859.16
2023-05-23T09:48:12.762Z,99855.81
2023-05-23T09:50:40.302Z,99851.34
2023-05-23T09:53:07.733Z,99852.16
2023-05-23T09:55:34.639Z,99848.53
2023-05-23T09:58:04.370Z,99857.25
2023-05-23T10:00:32.234Z,99852.63
2023-05-23T10:03:11.195Z,99852.22
2023-05-23T10:05:44.978Z,99842.97
2023-05-23T10:08:18.498Z,99850.31
2023-05-23T10:11:37.164Z,99856.22
2023-05-23T10:14:09.138Z,99854.06
2023-05-23T10:16:49.815Z,99853.88
2023-05-23T10:19:24.831Z,99860.44
2023-05-23T10:21:58.921Z,99869.63
2023-05-23T10:24:26.097Z,99864.13
2023-05-23T10:26:54.598Z,99860.00
2023-05-23T10:29:23.598Z,99863.31
2023-05-23T10:31:53.740Z,99865.25
2023-05-23T10:34:32.500Z,99868.00
2023-05-23T10:37:04.934Z,99875.75
2023-05-23T10:39:49.735Z,99877.69
2023-05-23T10:42:26.501Z,99870.03
2023-05-23T10:45:15.153Z,99872.50
2023-05-23T10:47:42.225Z,99864.50
2023-05-23T10:50:13.042Z,99858.75
2023-05-23T10:53:29.203Z,99859.25
2023-05-23T10:55:57.032Z,99861.69
2023-05-23T10:58:23.959Z,99860.34
2023-05-23T11:00:54.145Z,99856.75
2023-05-23T11:03:36.235Z,99854.28
2023-05-23T11:06:05.208Z,99853.09
2023-05-23T11:08:46.801Z,99850.41
2023-05-23T11:11:15.666Z,99853.88
2023-05-23T11:13:59.531Z,99849.69
2023-05-23T11:16:39.839Z,99849.75
2023-05-23T11:19:27.728Z,99848.59
2023-05-23T11:21:58.555Z,99846.88
2023-05-23T11:24:49.554Z,99841.94
2023-05-23T11:27:16.828Z,99845.66
2023-05-23T11:29:43.844Z,99842.09
2023-05-23T11:32:17.217Z,99852.41
2023-05-23T11:34:44.782Z,99841.16
2023-05-23T11:37:11.780Z,99849.72
2023-05-23T11:39:39.285Z,99843.81
2023-05-23T11:42:06.296Z,99849.72
2023-05-23T11:44:33.177Z,99849.13
2023-05-23T11:47:02.235Z,99855.44
2023-05-23T11:49:31.550Z,99839.91
2023-05-23T11:51:59.396Z,99844.25
2023-05-23T11:54:27.317Z,99842.69
2023-05-23T11:56:55.924Z,99840.00
2023-05-23T11:59:25.014Z,99834.03
2023-05-23T12:01:53.777Z,99836.69
2023-05-23T12:04:20.930Z,99838.06
2023-05-23T12:06:50.000Z,99836.63
2023-05-23T12:09:17.296Z,99827.94
2023-05-23T12:11:45.371Z,99835.75
2023-05-23T12:14:16.751Z,99832.47
2023-05-23T12:16:45.938Z,99834.72
2023-05-23T12:19:13.824Z,99837.78
2023-05-23T12:21:43.415Z,99848.69
2023-05-23T12:24:18.362Z,99839.69
2023-05-23T12:26:50.376Z,99844.00
2023-05-23T12:29:20.348Z,99839.75
2023-05-23T12:31:51.465Z,99843.41
2023-05-23T12:34:22.764Z,99842.25
2023-05-23T12:36:52.013Z,99844.47
2023-05-23T12:39:28.623Z,99842.84
2023-05-23T12:42:08.235Z,99843.59
2023-05-23T12:44:36.036Z,99838.91
2023-05-23T12:47:03.522Z,99844.28
2023-05-23T12:49:30.490Z,99837.38
2023-05-23T12:51:57.819Z,99843.56
2023-05-23T12:54:26.020Z,99841.22
2023-05-23T12:56:53.016Z,99842.66
2023-05-23T12:59:19.910Z,99839.34
2023-05-23T13:01:47.186Z,99839.91
2023-05-23T13:04:14.301Z,99829.06
2023-05-23T13:06:41.306Z,99834.19
2023-05-23T13:09:08.299Z,99833.19
2023-05-23T13:11:36.627Z,99833.47
2023-05-23T13:14:03.685Z,99828.91
2023-05-23T13:16:30.578Z,99830.97
2023-05-23T13:18:57.583Z,99828.06
2023-05-23T13:21:24.607Z,99833.75
2023-05-23T13:23:51.665Z,99828.44
2023-05-23T13:26:19.286Z,99827.47
2023-05-23T13:28:47.888Z,99823.91
2023-05-23T13:31:15.345Z,99817.47
2023-05-23T13:33:42.430Z,99820.69
2023-05-23T13:36:09.686Z,99821.22
2023-05-23T13:38:37.695Z,99818.78
2023-05-23T13:41:13.032Z,99813.44
2023-05-23T13:43:40.441Z,99804.81
2023-05-23T13:46:08.808Z,99813.72
2023-05-23T13:48:35.887Z,99810.00
2023-05-23T13:51:03.854Z,99806.75
2023-05-23T13:53:31.105Z,99810.88
2023-05-23T13:55:58.160Z,99812.00
2023-05-23T13:58:25.917Z,99808.53
2023-05-23T14:00:53.161Z,99814.19
2023-05-23T14:03:22.664Z,99811.31
2023-05-23T14:05:49.693Z,99815.56
2023-05-23T14:08:16.855Z,99810.00
2023-05-23T14:10:44.088Z,99810.03
2023-05-23T14:13:11.127Z,99809.59
2023-05-23T14:15:39.484Z,99809.00
2023-05-23T14:18:07.600Z,99805.59
2023-05-23T14:20:41.661Z,99806.19
2023-05-23T14:23:11.947Z,99799.19
2023-05-23T14:25:59.339Z,99808.97
2023-05-23T14:28:30.189Z,99803.00
2023-05-23T14:30:59.623Z,99810.34
2023-05-23T14:33:28.127Z,99816.44
2023-05-23T14:35:57.594Z,99818.66
2023-05-23T14:38:25.349Z,99816.94
2023-05-23T14:40:52.937Z,99823.94
2023-05-23T14:43:19.905Z,99814.50
2023-05-23T14:45:47.593Z,99819.66
2023-05-23T14:48:14.787Z,99818.66
2023-05-23T14:50:41.980Z,99815.44
2023-05-23T14:53:10.425Z,99812.53
2023-05-23T14:55:37.282Z,99801.63
2023-05-23T14:58:04.548Z,99815.34
2023-05-23T15:00:31.535Z,99810.88
2023-05-23T15:02:58.647Z,99816.41
2023-05-23T15:05:25.805Z,99811.25
2023-05-23T15:07:52.752Z,99803.47
2023-05-23T15:10:21.031Z,99800.63
2023-05-23T15:12:48.195Z,99803.88
2023-05-23T15:15:15.053Z,99803.50
2023-05-23T15:17:42.088Z,99802.91
2023-05-23T15:20:10.140Z,99810.41
2023-05-23T15:22:39.897Z,99811.84
2023-05-23T15:25:10.089Z,99800.63
2023-05-23T15:27:38.330Z,99817.75
2023-05-23T15:30:07.182Z,99810.34
2023-05-23T15:32:34.099Z,99807.09
2023-05-23T15:35:01.009Z,99811.91
2023-05-23T15:37:27.921Z,99809.72
2023-05-23T15:39:54.872Z,99802.97
2023-05-23T15:42:21.722Z,99816.00
2023-05-23T15:44:49.897Z,99805.19
2023-05-23T15:47:18.452Z,99812.09
2023-05-23T15:49:45.361Z,99808.97
2023-05-23T15:52:13.644Z,99806.75
2023-05-23T15:54:40.483Z,99810.47
2023-05-23T15:57:07.309Z,99809.59
2023-05-23T15:59:34.662Z,99807.81
2023-05-23T16:02:03.203Z,99803.72
2023-05-23T16:04:30.008Z,99798.66
2023-05-23T16:06:57.260Z,99807.13
2023-05-23T16:09:24.265Z,99807.59
2023-05-23T16:11:52.673Z,99808.97
2023-05-23T16:14:19.728Z,99816.72
2023-05-23T16:16:46.787Z,99813.34
2023-05-23T16:19:15.317Z,99802.81
2023-05-23T16:21:42.550Z,99807.25
2023-05-23T16:24:09.380Z,99812.63
2023-05-23T16:26:37.550Z,99803.50
2023-05-23T16:29:04.539Z,99811.25
2023-05-23T16:31:31.550Z,99801.03
2023-05-23T16:33:58.495Z,99806.88
2023-05-23T16:36:27.703Z,99815.13
2023-05-23T16:39:00.412Z,99808.22
2023-05-23T16:41:27.403Z,99812.00
2023-05-23T16:43:54.350Z,99809.28
2023-05-23T16:46:23.583Z,99801.41
2023-05-23T16:48:51.969Z,99806.16
2023-05-23T16:51:19.214Z,99806.44
2023-05-23T16:53:47.486Z,99811.13
2023-05-23T16:56:14.527Z,99813.84
2023-05-23T16:58:42.512Z,99813.84
2023-05-23T17:01:09.660Z,99823.25
2023-05-23T17:03:36.761Z,99825.16
2023-05-23T17:06:04.094Z,99823.00
2023-05-23T17:08:34.822Z,99819.16
2023-05-23T17:11:03.485Z,99815.56
2023-05-23T17:13:31.914Z,99816.97
2023-05-23T17:15:59.156Z,99808.69
2023-05-23T17:18:27.067Z,99821.38
2023-05-23T17:20:54.017Z,99815.88
2023-05-23T17:23:22.147Z,99819.75
2023-05-23T17:25:50.613Z,99823.84
2023-05-23T17:28:18.965Z,99821.09
2023-05-23T17:30:46.029Z,99824.16
2023-05-23T17:33:14.018Z,99826.34
2023-05-23T17:35:42.610Z,99832.34
2023-05-23T17:38:10.976Z,99830.72
2023-05-23T17:40:38.199Z,99829.06
2023-05-23T17:43:05.213Z,99836.47
2023-05-23T17:45:33.615Z,99845.84
2023-05-23T17:48:00.806Z,99845.28
2023-05-23T17:50:29.932Z,99848.03
2023-05-23T17:52:57.771Z,99856.53
2023-05-23T17:55:25.830Z,99854.88
2023-05-23T17:57:52.815Z,99856.81
2023-05-23T18:00:20.642Z,99854.53
2023-05-23T18:02:50.045Z,99863.31
2023-05-23T18:05:19.668Z,99860.75
2023-05-23T18:07:47.827Z,99867.66
2023-05-23T18:10:14.944Z,99876.41
2023-05-23T18:12:42.197Z,99879.16
2023-05-23T18:15:11.151Z,99873.41
2023-05-23T18:17:40.499Z,99876.16
2023-05-23T18:20:10.697Z,99881.09
2023-05-23T18:22:38.089Z,99872.28
2023-05-23T18:25:06.580Z,99875.56
2023-05-23T18:27:33.541Z,99880.75
2023-05-23T18:30:01.583Z,99881.03
2023-05-23T18:32:29.970Z,99887.34
2023-05-23T18:34:57.734Z,99878.81
2023-05-23T18:37:26.167Z,99887.56
2023-05-23T18:39:53.845Z,99885.94
2023-05-23T18:42:20.836Z,99886.19
2023-05-23T18:44:47.983Z,99887.25
2023-05-23T18:47:15.004Z,99889.16
2023-05-23T18:49:43.013Z,99889.81
2023-05-23T18:52:10.148Z,99900.44
2023-05-23T18:54:38.542Z,99904.25
2023-05-23T18:57:05.960Z,99908.69
2023-05-23T18:59:32.958Z,99917.69
2023-05-23T19:02:03.015Z,99924.53
2023-05-23T19:04:30.099Z,99931.91
2023-05-23T19:06:57.336Z,99933.75
2023-05-23T19:09:24.529Z,99934.78
2023-05-23T19:11:53.134Z,99934.72
2023-05-23T19:14:20.153Z,99946.50
2023-05-23T19:16:48.052Z,99946.94
2023-05-23T19:19:16.069Z,99948.84
2023-05-23T19:21:43.924Z,99959.28
2023-05-23T19:24:11.850Z,99955.38
2023-05-23T19:26:38.922Z,99958.91
2023-05-23T19:29:07.295Z,99961.03
2023-05-23T19:31:34.830Z,99968.06
2023-05-23T19:34:01.864Z,99970.25
2023-05-23T19:36:28.821Z,99971.59
2023-05-23T19:38:55.710Z,99982.47
2023-05-23T19:41:24.282Z,99983.50
2023-05-23T19:43:51.430Z,99987.06
2023-05-23T19:46:19.886Z,99991.91
2023-05-23T19:48:48.383Z,99992.09
2023-05-23T19:51:16.081Z,99999.41
2023-05-23T19:53:43.142Z,99991.63
2023-05-23T19:56:10.131Z,99998.75
2023-05-23T19:58:38.052Z,100002.56
2023-05-23T20:01:05.220Z,100004.41
2023-05-23T20:03:34.891Z,100005.44
2023-05-23T20:06:01.862Z,100010.25
2023-05-23T20:08:28.775Z,100016.91
2023-05-23T20:10:55.885Z,100016.75
2023-05-23T20:13:23.101Z,100020.44
2023-05-23T20:15:50.756Z,100011.09
2023-05-23T20:18:17.819Z,100016.09
2023-05-23T20:20:46.226Z,100020.63
2023-05-23T20:23:13.475Z,100023.78
2023-05-23T20:25:40.756Z,100034.50
2023-05-23T20:28:07.877Z,100039.97
2023-05-23T20:30:34.993Z,100035.44
2023-05-23T20:33:03.200Z,100033.84
2023-05-23T20:35:30.582Z,100033.75
2023-05-23T20:37:59.092Z,100034.47
2023-05-23T20:40:26.037Z,100033.75
2023-05-23T20:42:53.045Z,100038.63
2023-05-23T20:45:20.068Z,100051.34
2023-05-23T20:47:47.420Z,100049.19
2023-05-23T20:50:16.184Z,100059.03
2023-05-23T20:52:45.336Z,100056.88
2023-05-23T20:55:14.405Z,100068.38
2023-05-23T20:57:41.680Z,100067.22
2023-05-23T21:00:10.256Z,100069.69
2023-05-23T21:03:53.325Z,100070.84
2023-05-23T21:06:32.471Z,100080.53
2023-05-23T21:09:04.300Z,100080.06
2023-05-23T21:11:32.698Z,100084.09
2023-05-23T21:13:59.552Z,100092.03
2023-05-23T21:16:57.907Z,100095.09
2023-05-23T21:19:25.200Z,100092.38
2023-05-23T21:21:52.831Z,100096.06
2023-05-23T21:24:20.118Z,100099.88
2023-05-23T21:26:48.608Z,100108.06
2023-05-23T21:29:22.739Z,100102.63
2023-05-23T21:31:50.112Z,100105.72
2023-05-23T21:34:38.070Z,100110.63
2023-05-23T21:37:05.133Z,100109.09
2023-05-23T21:39:47.061Z,100108.88
2023-05-23T21:42:20.519Z,100104.75
2023-05-23T21:44:47.594Z,100110.56
2023-05-23T21:47:14.867Z,100109.94
2023-05-23T21:49:42.100Z,100102.72
2023-05-23T21:52:09.419Z,100109.13
2023-05-23T21:54:36.379Z,100109.47
2023-05-23T21:57:03.897Z,100112.00
2023-05-23T21:59:32.225Z,100119.44
2023-05-23T22:02:00.166Z,100120.50
2023-05-23T22:04:27.209Z,100125.88
2023-05-23T22:06:54.742Z,100116.22
2023-05-23T22:09:21.807Z,100123.72
2023-05-23T22:11:48.773Z,100128.81
2023-05-23T22:14:16.559Z,100124.44
2023-05-23T22:16:45.043Z,100125.72
2023-05-23T22:19:12.237Z,100124.06
2023-05-23T22:21:39.369Z,100127.63
2023-05-23T22:24:06.885Z,100126.88
2023-05-23T22:26:34.127Z,100123.47
2023-05-23T22:29:01.782Z,100130.25
2023-05-23T22:31:29.062Z,100123.63
2023-05-23T22:33:57.667Z,100132.41
2023-05-23T22:36:24.672Z,100127.94
2023-05-23T22:38:51.663Z,100115.00
2023-05-23T22:41:18.817Z,100115.34
2023-05-23T22:43:46.056Z,100120.94
2023-05-23T22:46:12.994Z,100120.09
2023-05-23T22:48:40.833Z,100120.94
2023-05-23T22:51:09.274Z,100108.38
2023-05-23T22:53:36.312Z,100106.97
2023-05-23T22:56:03.759Z,100122.69
2023-05-23T22:58:31.401Z,100118.44
2023-05-23T23:00:58.760Z,100128.28
2023-05-23T23:03:25.848Z,100122.69
2023-05-23T23:05:52.883Z,100127.44
2023-05-23T23:08:21.423Z,100133.00
2023-05-23T23:10:48.605Z,100116.19
2023-05-23T23:13:15.548Z,100123.50
2023-05-23T23:15:43.378Z,100116.97
2023-05-23T23:18:10.997Z,100118.19
2023-05-23T23:20:38.070Z,100113.94
2023-05-23T23:23:05.007Z,100108.25
2023-05-23T23:25:33.528Z,100121.47
2023-05-23T23:28:00.628Z,100115.75
2023-05-23T23:30:28.093Z,100122.03
2023-05-23T23:32:55.286Z,100113.41
2023-05-23T23:35:22.787Z,100114.81
2023-05-23T23:37:49.732Z,100118.34
2023-05-23T23:40:17.051Z,100106.75
2023-05-23T23:42:45.377Z,100112.50
2023-05-23T23:45:12.335Z,100114.66
2023-05-23T23:47:39.243Z,100111.09
2023-05-23T23:50:08.716Z,100102.44
2023-05-23T23:52:35.826Z,100105.38
2023-05-23T23:55:03.462Z,100107.25
2023-05-23T23:57:30.858Z,100104.22
